Time,TemperatureF,DewpointF,PressureIn,WindDirection,WindDirectionDegrees,WindSpeedMPH,WindSpeedGustMPH,Humidity,HourlyPrecipIn,Conditions,Clouds,dailyrainin,SoftwareType,DateUTC
2013-05-31 00:03:00,77.0,-99.9,30.22,SE,134,9.0,13.0,-999,-99.99,,,-99.99,,2013-05-31 04:03:00,
2013-05-31 00:12:00,77.0,-99.9,30.22,SE,136,8.0,13.0,-999,-99.99,,,-99.99,,2013-05-31 04:12:00,
2013-05-31 00:23:00,77.0,-99.9,30.22,SE,136,7.0,11.0,-999,-99.99,,,-99.99,,2013-05-31 04:23:00,
2013-05-31 00:33:00,77.0,-99.9,30.22,SE,133,6.0,10.0,-999,-99.99,,,-99.99,,2013-05-31 04:33:00,
2013-05-31 00:43:00,73.0,-99.9,30.22,SE,144,14.0,30.0,-999,-99.99,,,-99.99,,2013-05-31 04:43:00,
2013-05-31 00:53:00,74.0,-99.9,30.22,ESE,114,6.0,13.0,-999,-99.99,,,-99.99,,2013-05-31 04:53:00,
2013-05-31 01:02:00,74.0,-99.9,30.22,ESE,117,7.0,10.0,-999,-99.99,,,-99.99,,2013-05-31 05:02:00,
2013-05-31 01:12:00,74.0,-99.9,30.22,SE,140,5.0,8.0,-999,-99.99,,,-99.99,,2013-05-31 05:12:00,
2013-05-31 01:22:00,74.0,-99.9,30.22,SE,139,5.0,7.0,-999,-99.99,,,-99.99,,2013-05-31 05:22:00,
2013-05-31 01:32:00,75.0,-99.9,30.22,SE,134,6.0,10.0,-999,-99.99,,,-99.99,,2013-05-31 05:32:00,
2013-05-31 01:42:00,76.0,-99.9,30.21,SE,125,8.0,11.0,-999,-99.99,,,-99.99,,2013-05-31 05:42:00,
2013-05-31 01:52:00,76.0,-99.9,30.21,SE,133,8.0,13.0,-999,-99.99,,,-99.99,,2013-05-31 05:52:00,
2013-05-31 02:02:00,76.0,-99.9,30.21,SE,136,9.0,12.0,-999,-99.99,,,-99.99,,2013-05-31 06:02:00,
2013-05-31 02:12:00,76.0,-99.9,30.20,SE,138,8.0,12.0,-999,-99.99,,,-99.99,,2013-05-31 06:12:00,
2013-05-31 02:22:00,76.0,-99.9,30.20,SE,139,6.0,13.0,-999,-99.99,,,-99.99,,2013-05-31 06:22:00,
2013-05-31 02:32:00,76.0,-99.9,30.20,SE,139,6.0,11.0,-999,-99.99,,,-99.99,,2013-05-31 06:32:00,
2013-05-31 02:42:00,76.0,-99.9,30.19,SE,145,7.0,12.0,-999,-99.99,,,-99.99,,2013-05-31 06:42:00,
2013-05-31 02:52:00,76.0,-99.9,30.19,SE,143,5.0,9.0,-999,-99.99,,,-99.99,,2013-05-31 06:52:00,
2013-05-31 03:02:00,76.0,-99.9,30.19,SE,139,6.0,11.0,-999,-99.99,,,-99.99,,2013-05-31 07:02:00,
2013-05-31 03:12:00,76.0,-99.9,30.19,SE,136,6.0,11.0,-999,-99.99,,,-99.99,,2013-05-31 07:12:00,
2013-05-31 03:22:00,76.0,-99.9,30.18,SE,140,7.0,12.0,-999,-99.99,,,-99.99,,2013-05-31 07:22:00,
2013-05-31 03:32:00,76.0,-99.9,30.19,SE,142,8.0,14.0,-999,-99.99,,,-99.99,,2013-05-31 07:32:00,
2013-05-31 03:42:00,76.0,-99.9,30.18,SE,137,6.0,9.0,-999,-99.99,,,-99.99,,2013-05-31 07:42:00,
2013-05-31 03:53:00,76.0,-99.9,30.18,SE,137,7.0,13.0,-999,-99.99,,,-99.99,,2013-05-31 07:53:00,
2013-05-31 04:02:00,76.0,-99.9,30.18,SE,138,7.0,12.0,-999,-99.99,,,-99.99,,2013-05-31 08:02:00,
2013-05-31 04:11:00,76.0,-99.9,30.18,SE,133,7.0,13.0,-999,-99.99,,,-99.99,,2013-05-31 08:11:00,
2013-05-31 04:22:00,76.0,-99.9,30.17,SE,133,8.0,13.0,-999,-99.99,,,-99.99,,2013-05-31 08:22:00,
2013-05-31 04:32:00,76.0,-99.9,30.17,SE,135,10.0,14.0,-999,-99.99,,,-99.99,,2013-05-31 08:32:00,
2013-05-31 04:42:00,76.0,-99.9,30.17,SE,140,9.0,17.0,-999,-99.99,,,-99.99,,2013-05-31 08:42:00,
2013-05-31 04:52:00,76.0,-99.9,30.18,SE,129,7.0,14.0,-999,-99.99,,,-99.99,,2013-05-31 08:52:00,
2013-05-31 05:01:00,76.0,-99.9,30.17,SE,140,8.0,12.0,-999,-99.99,,,-99.99,,2013-05-31 09:01:00,
2013-05-31 05:11:00,76.0,-99.9,30.17,SE,128,6.0,11.0,-999,-99.99,,,-99.99,,2013-05-31 09:11:00,
2013-05-31 05:21:00,76.0,-99.9,30.18,SE,132,6.0,10.0,-999,-99.99,,,-99.99,,2013-05-31 09:21:00,
2013-05-31 05:32:00,76.0,-99.9,30.18,SE,133,6.0,14.0,-999,-99.99,,,-99.99,,2013-05-31 09:32:00,
2013-05-31 05:43:00,76.0,-99.9,30.18,SE,129,7.0,10.0,-999,-99.99,,,-99.99,,2013-05-31 09:43:00,
2013-05-31 05:53:00,76.0,-99.9,30.18,SE,130,6.0,12.0,-999,-99.99,,,-99.99,,2013-05-31 09:53:00,
2013-05-31 06:02:00,76.0,-99.9,30.18,SE,131,6.0,10.0,-999,-99.99,,,-99.99,,2013-05-31 10:02:00,
2013-05-31 06:12:00,76.0,-99.9,30.18,SE,132,7.0,10.0,-999,-99.99,,,-99.99,,2013-05-31 10:12:00,
2013-05-31 06:23:00,76.0,-99.9,30.18,SE,130,8.0,12.0,-999,-99.99,,,-99.99,,2013-05-31 10:23:00,
2013-05-31 06:33:00,76.0,-99.9,30.18,ESE,123,8.0,13.0,-999,-99.99,,,-99.99,,2013-05-31 10:33:00,
2013-05-31 06:42:00,76.0,-99.9,30.19,SE,130,6.0,12.0,-999,-99.99,,,-99.99,,2013-05-31 10:42:00,
2013-05-31 06:52:00,76.0,-99.9,30.18,SE,129,11.0,14.0,-999,-99.99,,,-99.99,,2013-05-31 10:52:00,
2013-05-31 07:02:00,76.0,-99.9,30.18,SE,128,8.0,13.0,-999,-99.99,,,-99.99,,2013-05-31 11:02:00,
2013-05-31 07:12:00,77.0,-99.9,30.18,SE,128,9.0,15.0,-999,-99.99,,,-99.99,,2013-05-31 11:12:00,
2013-05-31 07:22:00,77.0,-99.9,30.19,SE,128,9.0,16.0,-999,-99.99,,,-99.99,,2013-05-31 11:22:00,
2013-05-31 07:32:00,77.0,-99.9,30.19,SE,130,9.0,13.0,-999,-99.99,,,-99.99,,2013-05-31 11:32:00,
2013-05-31 07:42:00,78.0,-99.9,30.19,ESE,117,9.0,15.0,-999,-99.99,,,-99.99,,2013-05-31 11:42:00,
2013-05-31 07:52:00,78.0,-99.9,30.19,SE,125,9.0,17.0,-999,-99.99,,,-99.99,,2013-05-31 11:52:00,
2013-05-31 08:01:00,78.0,-99.9,30.19,SE,127,6.0,13.0,-999,-99.99,,,-99.99,,2013-05-31 12:01:00,
2013-05-31 08:11:00,78.0,-99.9,30.19,SE,125,6.0,14.0,-999,-99.99,,,-99.99,,2013-05-31 12:11:00,
2013-05-31 08:22:00,78.0,-99.9,30.19,ESE,121,10.0,15.0,-999,-99.99,,,-99.99,,2013-05-31 12:22:00,
2013-05-31 08:32:00,78.0,-99.9,30.19,ESE,119,11.0,18.0,-999,-99.99,,,-99.99,,2013-05-31 12:32:00,
2013-05-31 08:42:00,79.0,-99.9,30.20,ESE,112,10.0,16.0,-999,-99.99,,,-99.99,,2013-05-31 12:42:00,
2013-05-31 08:52:00,79.0,-99.9,30.20,ESE,108,9.0,14.0,-999,-99.99,,,-99.99,,2013-05-31 12:52:00,
2013-05-31 09:01:00,79.0,-99.9,30.21,ESE,108,11.0,16.0,-999,-99.99,,,-99.99,,2013-05-31 13:01:00,
2013-05-31 09:11:00,79.0,-99.9,30.20,ESE,118,10.0,15.0,-999,-99.99,,,-99.99,,2013-05-31 13:11:00,
2013-05-31 09:21:00,80.0,-99.9,30.21,ESE,120,7.0,17.0,-999,-99.99,,,-99.99,,2013-05-31 13:21:00,
2013-05-31 09:32:00,79.0,-99.9,30.21,ESE,122,12.0,21.0,-999,-99.99,,,-99.99,,2013-05-31 13:32:00,
2013-05-31 09:42:00,79.0,-99.9,30.21,SE,125,13.0,18.0,-999,-99.99,,,-99.99,,2013-05-31 13:42:00,
2013-05-31 09:52:00,80.0,-99.9,30.21,ESE,110,10.0,18.0,-999,-99.99,,,-99.99,,2013-05-31 13:52:00,
2013-05-31 10:02:00,80.0,-99.9,30.21,ESE,123,11.0,17.0,-999,-99.99,,,-99.99,,2013-05-31 14:02:00,
2013-05-31 10:11:00,80.0,-99.9,30.22,ESE,122,12.0,19.0,-999,-99.99,,,-99.99,,2013-05-31 14:11:00,
2013-05-31 10:22:00,79.0,-99.9,30.22,SE,136,16.0,19.0,-999,-99.99,,,-99.99,,2013-05-31 14:22:00,
2013-05-31 10:32:00,80.0,-99.9,30.22,SE,125,12.0,17.0,-999,-99.99,,,-99.99,,2013-05-31 14:32:00,
2013-05-31 10:42:00,80.0,-99.9,30.22,SE,133,13.0,18.0,-999,-99.99,,,-99.99,,2013-05-31 14:42:00,
2013-05-31 10:52:00,80.0,-99.9,30.22,SE,133,10.0,19.0,-999,-99.99,,,-99.99,,2013-05-31 14:52:00,
2013-05-31 11:01:00,81.0,-99.9,30.23,ESE,122,9.0,15.0,-999,-99.99,,,-99.99,,2013-05-31 15:01:00,
2013-05-31 11:11:00,80.0,-99.9,30.23,ESE,123,13.0,20.0,-999,-99.99,,,-99.99,,2013-05-31 15:11:00,
2013-05-31 11:22:00,80.0,-99.9,30.23,SE,125,9.0,18.0,-999,-99.99,,,-99.99,,2013-05-31 15:22:00,
2013-05-31 11:33:00,80.0,-99.9,30.23,SE,127,14.0,19.0,-999,-99.99,,,-99.99,,2013-05-31 15:33:00,
2013-05-31 11:43:00,80.0,-99.9,30.23,SE,127,14.0,18.0,-999,-99.99,,,-99.99,,2013-05-31 15:43:00,
2013-05-31 11:53:00,80.0,-99.9,30.23,SE,127,10.0,19.0,-999,-99.99,,,-99.99,,2013-05-31 15:53:00,
2013-05-31 12:03:00,80.0,-99.9,30.24,SE,134,12.0,19.0,-999,-99.99,,,-99.99,,2013-05-31 16:03:00,
2013-05-31 12:12:00,80.0,-99.9,30.24,SE,136,13.0,17.0,-999,-99.99,,,-99.99,,2013-05-31 16:12:00,
2013-05-31 12:22:00,81.0,-99.9,30.24,ESE,117,8.0,18.0,-999,-99.99,,,-99.99,,2013-05-31 16:22:00,
2013-05-31 12:33:00,80.0,-99.9,30.24,ESE,119,13.0,21.0,-999,-99.99,,,-99.99,,2013-05-31 16:33:00,
2013-05-31 12:42:00,80.0,-99.9,30.24,SE,125,12.0,18.0,-999,-99.99,,,-99.99,,2013-05-31 16:42:00,
2013-05-31 12:53:00,81.0,-99.9,30.24,ESE,112,10.0,19.0,-999,-99.99,,,-99.99,,2013-05-31 16:53:00,
2013-05-31 13:02:00,81.0,-99.9,30.24,ESE,119,9.0,17.0,-999,-99.99,,,-99.99,,2013-05-31 17:02:00,
2013-05-31 13:12:00,81.0,-99.9,30.23,ESE,118,10.0,17.0,-999,-99.99,,,-99.99,,2013-05-31 17:12:00,
2013-05-31 13:22:00,81.0,-99.9,30.23,ESE,114,11.0,16.0,-999,-99.99,,,-99.99,,2013-05-31 17:22:00,
2013-05-31 13:32:00,81.0,-99.9,30.23,ESE,119,10.0,17.0,-999,-99.99,,,-99.99,,2013-05-31 17:32:00,
2013-05-31 13:42:00,81.0,-99.9,30.23,ESE,120,11.0,16.0,-999,-99.99,,,-99.99,,2013-05-31 17:42:00,
2013-05-31 13:52:00,81.0,-99.9,30.23,ESE,111,10.0,16.0,-999,-99.99,,,-99.99,,2013-05-31 17:52:00,
2013-05-31 14:02:00,80.0,-99.9,30.23,SE,124,11.0,18.0,-999,-99.99,,,-99.99,,2013-05-31 18:02:00,
2013-05-31 14:12:00,80.0,-99.9,30.22,SE,124,13.0,17.0,-999,-99.99,,,-99.99,,2013-05-31 18:12:00,
2013-05-31 14:22:00,81.0,-99.9,30.22,ESE,119,11.0,17.0,-999,-99.99,,,-99.99,,2013-05-31 18:22:00,
2013-05-31 14:32:00,81.0,-99.9,30.22,ESE,119,10.0,18.0,-999,-99.99,,,-99.99,,2013-05-31 18:32:00,
2013-05-31 14:42:00,81.0,-99.9,30.22,ESE,114,9.0,15.0,-999,-99.99,,,-99.99,,2013-05-31 18:42:00,
2013-05-31 14:52:00,81.0,-99.9,30.22,ESE,112,11.0,19.0,-999,-99.99,,,-99.99,,2013-05-31 18:52:00,
2013-05-31 15:02:00,81.0,-99.9,30.22,ESE,103,13.0,18.0,-999,-99.99,,,-99.99,,2013-05-31 19:02:00,
2013-05-31 15:12:00,80.0,-99.9,30.21,SE,128,14.0,19.0,-999,-99.99,,,-99.99,,2013-05-31 19:12:00,
2013-05-31 15:22:00,81.0,-99.9,30.21,ESE,115,11.0,16.0,-999,-99.99,,,-99.99,,2013-05-31 19:22:00,
2013-05-31 15:32:00,81.0,-99.9,30.21,SE,130,13.0,18.0,-999,-99.99,,,-99.99,,2013-05-31 19:32:00,
2013-05-31 15:42:00,81.0,-99.9,30.20,SE,126,11.0,16.0,-999,-99.99,,,-99.99,,2013-05-31 19:42:00,
2013-05-31 15:52:00,81.0,-99.9,30.20,ESE,104,12.0,18.0,-999,-99.99,,,-99.99,,2013-05-31 19:52:00,
2013-05-31 16:02:00,81.0,-99.9,30.20,ESE,117,13.0,17.0,-999,-99.99,,,-99.99,,2013-05-31 20:02:00,
2013-05-31 16:11:00,81.0,-99.9,30.20,SE,132,13.0,19.0,-999,-99.99,,,-99.99,,2013-05-31 20:11:00,
2013-05-31 16:22:00,82.0,-99.9,30.19,ESE,114,9.0,18.0,-999,-99.99,,,-99.99,,2013-05-31 20:22:00,
2013-05-31 16:32:00,81.0,-99.9,30.19,ESE,111,10.0,21.0,-999,-99.99,,,-99.99,,2013-05-31 20:32:00,
2013-05-31 16:42:00,81.0,-99.9,30.19,ESE,111,11.0,17.0,-999,-99.99,,,-99.99,,2013-05-31 20:42:00,
2013-05-31 16:52:00,81.0,-99.9,30.18,SE,127,12.0,18.0,-999,-99.99,,,-99.99,,2013-05-31 20:52:00,
2013-05-31 17:01:00,82.0,-99.9,30.18,ESE,108,8.0,14.0,-999,-99.99,,,-99.99,,2013-05-31 21:01:00,
2013-05-31 17:12:00,80.0,-99.9,30.18,ESE,105,13.0,17.0,-999,-99.99,,,-99.99,,2013-05-31 21:12:00,
2013-05-31 17:22:00,81.0,-99.9,30.18,ESE,107,12.0,18.0,-999,-99.99,,,-99.99,,2013-05-31 21:22:00,
2013-05-31 17:33:00,81.0,-99.9,30.18,SE,129,10.0,19.0,-999,-99.99,,,-99.99,,2013-05-31 21:33:00,
2013-05-31 17:43:00,80.0,-99.9,30.18,ESE,113,12.0,19.0,-999,-99.99,,,-99.99,,2013-05-31 21:43:00,
2013-05-31 17:54:00,81.0,-99.9,30.17,SE,128,10.0,17.0,-999,-99.99,,,-99.99,,2013-05-31 21:54:00,
2013-05-31 18:03:00,81.0,-99.9,30.17,ESE,119,10.0,18.0,-999,-99.99,,,-99.99,,2013-05-31 22:03:00,
2013-05-31 18:12:00,81.0,-99.9,30.17,ESE,116,9.0,17.0,-999,-99.99,,,-99.99,,2013-05-31 22:12:00,
2013-05-31 18:22:00,81.0,-99.9,30.17,SE,127,11.0,16.0,-999,-99.99,,,-99.99,,2013-05-31 22:22:00,
2013-05-31 18:33:00,81.0,-99.9,30.17,ESE,116,8.0,17.0,-999,-99.99,,,-99.99,,2013-05-31 22:33:00,
2013-05-31 18:42:00,80.0,-99.9,30.17,ESE,117,11.0,18.0,-999,-99.99,,,-99.99,,2013-05-31 22:42:00,
2013-05-31 18:53:00,80.0,-99.9,30.17,ESE,121,10.0,15.0,-999,-99.99,,,-99.99,,2013-05-31 22:53:00,
2013-05-31 19:02:00,80.0,-99.9,30.17,SE,127,9.0,14.0,-999,-99.99,,,-99.99,,2013-05-31 23:02:00,
2013-05-31 19:12:00,80.0,-99.9,30.17,ESE,117,10.0,17.0,-999,-99.99,,,-99.99,,2013-05-31 23:12:00,
2013-05-31 19:22:00,80.0,-99.9,30.17,ESE,122,9.0,15.0,-999,-99.99,,,-99.99,,2013-05-31 23:22:00,
2013-05-31 19:32:00,80.0,-99.9,30.17,ESE,111,11.0,17.0,-999,-99.99,,,-99.99,,2013-05-31 23:32:00,
2013-05-31 19:42:00,79.0,-99.9,30.17,SE,124,14.0,21.0,-999,-99.99,,,-99.99,,2013-05-31 23:42:00,
2013-05-31 19:52:00,79.0,-99.9,30.17,SE,125,8.0,15.0,-999,-99.99,,,-99.99,,2013-05-31 23:52:00,
2013-05-31 20:01:00,79.0,-99.9,30.17,ESE,122,9.0,14.0,-999,-99.99,,,-99.99,,2013-06-01 00:01:00,
2013-05-31 20:12:00,79.0,-99.9,30.17,ESE,120,8.0,13.0,-999,-99.99,,,-99.99,,2013-06-01 00:12:00,
2013-05-31 20:22:00,78.0,-99.9,30.18,SE,125,8.0,15.0,-999,-99.99,,,-99.99,,2013-06-01 00:22:00,
2013-05-31 20:32:00,78.0,-99.9,30.18,SE,124,9.0,14.0,-999,-99.99,,,-99.99,,2013-06-01 00:32:00,
2013-05-31 20:42:00,78.0,-99.9,30.18,SE,125,8.0,14.0,-999,-99.99,,,-99.99,,2013-06-01 00:42:00,
2013-05-31 20:52:00,78.0,-99.9,30.18,SE,125,10.0,14.0,-999,-99.99,,,-99.99,,2013-06-01 00:52:00,
2013-05-31 21:02:00,78.0,-99.9,30.18,SE,135,10.0,13.0,-999,-99.99,,,-99.99,,2013-06-01 01:02:00,
2013-05-31 21:11:00,78.0,-99.9,30.18,ESE,122,7.0,12.0,-999,-99.99,,,-99.99,,2013-06-01 01:11:00,
2013-05-31 21:22:00,78.0,-99.9,30.18,ESE,121,8.0,14.0,-999,-99.99,,,-99.99,,2013-06-01 01:22:00,
2013-05-31 21:32:00,78.0,-99.9,30.18,ESE,118,8.0,14.0,-999,-99.99,,,-99.99,,2013-06-01 01:32:00,
2013-05-31 21:42:00,78.0,-99.9,30.18,SE,131,10.0,14.0,-999,-99.99,,,-99.99,,2013-06-01 01:42:00,
2013-05-31 21:52:00,78.0,-99.9,30.18,SE,127,9.0,16.0,-999,-99.99,,,-99.99,,2013-06-01 01:52:00,
2013-05-31 22:02:00,78.0,-99.9,30.18,SE,124,8.0,15.0,-999,-99.99,,,-99.99,,2013-06-01 02:02:00,
2013-05-31 22:12:00,78.0,-99.9,30.19,ESE,122,8.0,14.0,-999,-99.99,,,-99.99,,2013-06-01 02:12:00,
2013-05-31 22:22:00,78.0,-99.9,30.19,SE,127,9.0,15.0,-999,-99.99,,,-99.99,,2013-06-01 02:22:00,
2013-05-31 22:32:00,78.0,-99.9,30.19,ESE,123,9.0,14.0,-999,-99.99,,,-99.99,,2013-06-01 02:32:00,
2013-05-31 22:42:00,78.0,-99.9,30.19,SE,127,9.0,13.0,-999,-99.99,,,-99.99,,2013-06-01 02:42:00,
2013-05-31 22:52:00,78.0,-99.9,30.19,ESE,120,7.0,12.0,-999,-99.99,,,-99.99,,2013-06-01 02:52:00,
2013-05-31 23:02:00,78.0,-99.9,30.19,ESE,116,9.0,15.0,-999,-99.99,,,-99.99,,2013-06-01 03:02:00,
2013-05-31 23:11:00,77.0,-99.9,30.19,SE,127,8.0,13.0,-999,-99.99,,,-99.99,,2013-06-01 03:11:00,
2013-05-31 23:22:00,78.0,-99.9,30.19,ESE,123,6.0,15.0,-999,-99.99,,,-99.99,,2013-06-01 03:22:00,
2013-05-31 23:33:00,78.0,-99.9,30.19,ESE,117,7.0,13.0,-999,-99.99,,,-99.99,,2013-06-01 03:33:00,
2013-05-31 23:43:00,78.0,-99.9,30.19,ESE,117,8.0,13.0,-999,-99.99,,,-99.99,,2013-06-01 03:43:00,
2013-05-31 23:53:00,78.0,-99.9,30.19,SE,130,10.0,15.0,-999,-99.99,,,-99.99,,2013-06-01 03:53:00,